Paige, TX (78659)

12:34 PM CDT on March 24, 2017 (GMT -0500)
Manheim, Texas | | Change Station

Elev 453 ft 30.26 °N, 97.04 °W | Updated 23 seconds ago

Overcast
Overcast
71.1 °F
Feels Like 71.1 °F
N
3.6
Wind Variable Wind from SW
Gusts 4.9 mph

Today
High -- | Low -- °F
--% Chance of Precip.
Yesterday
High -- | Low -- °F
Precip. -- in
Pressure 29.97 in
Visibility 5.0 miles
Clouds Scattered Clouds 1300 ft
Mostly Cloudy 3500 ft
Overcast 6000 ft
Dew Point 69 °F
Humidity 92%
Rainfall 0.02 in
Snow Depth Not available.
7:27 AM 7:42 PM
Waning Crescent, 14% visible
METAR KGYB 241715Z AUTO 19006KT 5SM -RA SCT013 BKN035 OVC060 21/19 A2997 RMK AO2 P0002 T02050191
Pressure 29.97 in
Visibility 5.0 miles
Clouds Scattered Clouds 1300 ft
Mostly Cloudy 3500 ft
Overcast 6000 ft
Dew Point 69 °F
Humidity 92%
Rainfall 0.02 in
Snow Depth Not available.
7:27 AM 7:42 PM
Waning Crescent, 14% visible
METAR KGYB 241715Z AUTO 19006KT 5SM -RA SCT013 BKN035 OVC060 21/19 A2997 RMK AO2 P0002 T02050191

Get Severe Weather Alerts

Thanks for signing up!

Be on the lookout for a verification email in your inbox.

You'll start receiving the daily forecast at 8 AM.

×

10-Day Weather Forecast

Almanac

Astronomy

Mar. 24, 2017 Rise Set
Actual Time
Civil Twilight
Nautical Twilight
Astronomical Twilight
Moon
Length of Visible Light
Length of Day
Tomorrow will be .
, % of the Moon is Illuminated

Today's Extremes

State Highs State Lows

Community

WunderPhotos

Upload Photos

1,962,540 photos uploaded!

WunderBlog® & News

Nearby

Air Quality

  Air Quality AQ Index Pollutant
Not available.

Snow Depth

Station Depth Elevation

Earthquake Activity

City Distance Mag. Time & Date
Minimum magnitude displayed is 2.5.

Earthquake Activity

City Distance Mag. Time & Date
Minimum magnitude displayed is 2.5.

Coastal Water Temperatures

Place Temperature

Stations

Nearby Weather Stations

Station Location Temp. Windchill Dew Point Humidity Wind Precip. Elev Updated Type
                   

Watches & Warnings

There are currently no watches in effect.